Time;durP1;ratioP1;P1;durP2;ratioP2;P2;SDS_P1;SDS_P2;PMS_P1;PMS_P2;Temp;Humidity;BMP_temperature;BMP_pressure;BME280_temperature;BME280_humidity;BME280_pressure;Samples;Min_cycle;Max_cycle;Signal;HPM_P1;HPM_P2
2021/07/21 00:02:20;;;;;;;14.43;11.98;;;14.10;99.90;;;;;;5027984;28;20168;-50
2021/07/21 00:04:46;;;;;;;13.50;11.02;;;14.10;99.90;;;;;;5028523;28;20049;-51
2021/07/21 00:07:13;;;;;;;14.43;11.05;;;14.10;99.90;;;;;;5027591;28;20163;-56
2021/07/21 00:09:40;;;;;;;13.05;10.88;;;14.10;99.90;;;;;;5027016;28;20084;-49
2021/07/21 00:14:51;;;;;;;12.65;10.70;;;14.00;99.90;;;;;;5024953;28;20099;-52
2021/07/21 00:17:19;;;;;;;13.27;9.93;;;14.00;99.90;;;;;;5026791;28;20092;-50
2021/07/21 00:20:05;;;;;;;12.50;10.55;;;14.00;99.90;;;;;;5027586;28;20057;-52
2021/07/21 00:22:36;;;;;;;13.23;10.40;;;14.00;99.90;;;;;;5014912;28;20489;-48
2021/07/21 00:25:05;;;;;;;12.32;10.02;;;14.00;99.90;;;;;;5028490;28;20510;-50
2021/07/21 00:27:31;;;;;;;12.15;9.90;;;14.00;99.90;;;;;;5027584;28;20049;-47
2021/07/21 00:30:06;;;;;;;13.27;9.95;;;14.00;99.90;;;;;;5026985;28;20080;-51
2021/07/21 00:32:32;;;;;;;13.13;9.77;;;14.00;99.90;;;;;;5037128;28;20136;-53
2021/07/21 00:35:03;;;;;;;13.98;9.88;;;14.00;99.90;;;;;;5025793;28;20046;-51
2021/07/21 00:37:30;;;;;;;13.20;10.88;;;14.00;99.90;;;;;;5026227;28;20445;-53
2021/07/21 00:39:56;;;;;;;13.52;10.32;;;14.00;99.90;;;;;;5033016;28;20045;-49
2021/07/21 00:42:22;;;;;;;12.15;9.13;;;14.00;99.90;;;;;;5026146;28;20061;-49
2021/07/21 00:44:49;;;;;;;13.82;9.95;;;14.00;99.90;;;;;;5027266;28;20057;-52
2021/07/21 00:47:15;;;;;;;12.57;9.68;;;13.90;99.90;;;;;;5024134;28;20326;-53
2021/07/21 00:49:44;;;;;;;12.10;9.95;;;13.90;99.90;;;;;;5021991;28;20068;-56
2021/07/21 00:52:11;;;;;;;12.85;9.10;;;13.80;99.90;;;;;;5025989;28;20521;-50
2021/07/21 00:54:39;;;;;;;11.73;9.07;;;13.70;99.90;;;;;;5042558;28;20128;-49
2021/07/21 00:57:07;;;;;;;12.60;10.40;;;13.60;99.90;;;;;;5041815;28;20067;-51
2021/07/21 00:59:35;;;;;;;14.27;11.77;;;13.50;99.90;;;;;;5026723;28;20072;-51
2021/07/21 01:02:03;;;;;;;14.38;10.90;;;13.40;99.90;;;;;;5033000;28;20705;-50
2021/07/21 01:04:32;;;;;;;11.88;10.52;;;13.40;99.90;;;;;;5041844;28;20045;-51
2021/07/21 01:07:01;;;;;;;14.57;11.10;;;13.40;99.90;;;;;;5041487;28;20053;-55
2021/07/21 01:09:32;;;;;;;13.98;9.65;;;13.40;99.90;;;;;;5029981;28;20053;-51
2021/07/21 01:12:26;;;;;;;13.93;10.27;;;13.30;99.90;;;;;;5041156;28;20049;-50
2021/07/21 01:15:01;;;;;;;13.20;9.98;;;13.30;99.90;;;;;;5027019;28;20057;-47
2021/07/21 01:17:54;;;;;;;14.15;11.45;;;13.20;99.90;;;;;;5024135;28;20079;-49
2021/07/21 01:20:52;;;;;;;13.07;10.70;;;13.20;99.90;;;;;;5021728;28;20497;-49
2021/07/21 01:23:40;;;;;;;11.73;10.00;;;13.10;99.90;;;;;;5040208;28;20457;-51
2021/07/21 01:26:24;;;;;;;14.13;10.00;;;13.20;99.90;;;;;;5025925;28;20053;-50
2021/07/21 01:28:53;;;;;;;13.73;10.20;;;13.10;99.90;;;;;;5025196;28;20502;-51
2021/07/21 01:31:37;;;;;;;15.98;11.77;;;13.10;99.90;;;;;;5033425;28;20060;-52
2021/07/21 01:34:05;;;;;;;14.52;10.60;;;13.10;99.90;;;;;;5026818;28;20053;-47
2021/07/21 01:36:39;;;;;;;15.13;10.57;;;13.20;99.90;;;;;;5026180;28;20093;-48
2021/07/21 01:39:15;;;;;;;16.05;11.40;;;13.20;99.90;;;;;;5025330;28;20046;-50
2021/07/21 01:41:49;;;;;;;13.35;10.70;;;13.20;99.90;;;;;;5025135;28;20084;-50
2021/07/21 01:44:19;;;;;;;15.65;11.82;;;13.20;99.90;;;;;;5025615;28;20053;-50
2021/07/21 01:46:51;;;;;;;16.92;13.13;;;13.20;99.90;;;;;;5025557;28;20057;-53
2021/07/21 01:49:20;;;;;;;20.42;12.98;;;13.20;99.90;;;;;;5025986;28;20127;-52
2021/07/21 01:51:48;;;;;;;13.65;11.93;;;13.20;99.90;;;;;;5040825;28;20053;-51
2021/07/21 01:54:18;;;;;;;14.85;11.15;;;13.10;99.90;;;;;;5040823;28;20137;-50
2021/07/21 01:57:00;;;;;;;12.85;9.88;;;13.10;99.90;;;;;;5042101;28;20049;-48
2021/07/21 01:59:30;;;;;;;13.15;10.63;;;13.10;99.90;;;;;;5026446;28;20057;-53
2021/07/21 02:02:16;;;;;;;13.30;11.07;;;13.20;99.90;;;;;;5024231;28;20057;-52
2021/07/21 02:04:57;;;;;;;16.70;12.38;;;13.10;99.90;;;;;;5024957;28;20049;-48
2021/07/21 02:07:24;;;;;;;16.25;11.80;;;13.20;99.90;;;;;;5040981;28;20062;-55
2021/07/21 02:09:53;;;;;;;15.20;13.10;;;13.30;99.90;;;;;;5026560;28;20065;-52
2021/07/21 02:12:49;;;;;;;18.23;12.95;;;13.40;99.90;;;;;;5040632;28;20053;-50
2021/07/21 02:15:17;;;;;;;16.33;12.02;;;13.40;99.90;;;;;;5043225;28;20497;-50
2021/07/21 02:17:47;;;;;;;16.75;14.00;;;13.50;99.90;;;;;;5025001;28;20049;-50
2021/07/21 02:20:15;;;;;;;16.60;14.00;;;13.60;99.90;;;;;;5026918;28;20064;-48
2021/07/21 02:22:48;;;;;;;15.80;11.57;;;13.70;99.90;;;;;;5030082;28;20410;-49
2021/07/21 02:25:27;;;;;;;14.00;11.52;;;13.70;99.90;;;;;;5029779;28;20080;-49
2021/07/21 02:27:55;;;;;;;16.30;13.75;;;13.80;99.90;;;;;;5043673;28;20045;-52
2021/07/21 02:30:23;;;;;;;18.65;12.93;;;13.80;99.90;;;;;;5028972;28;20064;-53
2021/07/21 02:33:01;;;;;;;15.88;12.77;;;13.90;99.90;;;;;;5044225;28;21042;-50
2021/07/21 02:35:28;;;;;;;17.92;13.40;;;13.90;99.90;;;;;;5030516;28;20140;-50
2021/07/21 02:37:58;;;;;;;15.60;13.07;;;13.90;99.90;;;;;;5021801;28;20081;-51
2021/07/21 02:40:26;;;;;;;17.77;12.10;;;14.00;99.90;;;;;;5045433;28;20049;-50
2021/07/21 02:43:05;;;;;;;16.00;12.63;;;14.00;99.90;;;;;;5027338;28;20069;-53
2021/07/21 02:45:32;;;;;;;15.45;12.27;;;14.00;99.90;;;;;;5026753;28;20050;-48
2021/07/21 02:48:04;;;;;;;12.77;11.27;;;14.00;99.90;;;;;;5029253;28;20053;-51
2021/07/21 02:50:32;;;;;;;16.10;11.70;;;14.10;99.90;;;;;;5017235;28;20538;-54
2021/07/21 02:53:09;;;;;;;14.98;12.30;;;14.10;99.90;;;;;;5043236;28;20056;-51
2021/07/21 02:55:59;;;;;;;14.57;11.80;;;14.10;99.90;;;;;;5028952;28;20072;-52
2021/07/21 02:58:29;;;;;;;15.10;12.30;;;14.10;99.90;;;;;;5042740;28;20049;-52
2021/07/21 03:01:00;;;;;;;13.80;12.30;;;14.00;99.90;;;;;;5028807;28;20061;-50
2021/07/21 03:03:33;;;;;;;17.25;13.20;;;14.10;99.90;;;;;;5028295;28;20353;-50
2021/07/21 03:06:05;;;;;;;14.50;12.98;;;14.10;99.90;;;;;;5033908;28;20108;-47
2021/07/21 03:08:46;;;;;;;14.73;11.93;;;14.10;99.90;;;;;;5043899;28;20056;-49
2021/07/21 03:11:26;;;;;;;16.05;12.70;;;14.00;99.90;;;;;;5043002;28;20045;-50
2021/07/21 03:14:00;;;;;;;15.13;12.27;;;14.00;99.90;;;;;;5044820;28;20150;-53
2021/07/21 03:16:32;;;;;;;14.70;11.80;;;14.10;99.90;;;;;;5024923;28;20073;-49
2021/07/21 03:19:05;;;;;;;13.45;11.05;;;14.10;99.90;;;;;;5020036;28;20101;-51
2021/07/21 03:21:40;;;;;;;14.77;11.98;;;14.10;99.90;;;;;;5045494;28;20061;-51
2021/07/21 03:24:13;;;;;;;15.50;12.80;;;14.10;99.90;;;;;;5046104;28;20045;-49
2021/07/21 03:27:18;;;;;;;15.05;11.63;;;14.10;99.90;;;;;;5047396;28;20146;-52
2021/07/21 03:30:16;;;;;;;16.17;12.20;;;14.10;99.90;;;;;;5005573;28;20057;-49
2021/07/21 03:32:51;;;;;;;15.35;12.23;;;14.20;99.90;;;;;;4991297;28;20050;-49
2021/07/21 03:35:25;;;;;;;17.58;12.65;;;14.20;99.90;;;;;;4990535;28;20053;-49
2021/07/21 03:37:55;;;;;;;17.73;12.57;;;14.20;99.90;;;;;;5006341;28;20533;-49
2021/07/21 03:40:26;;;;;;;18.70;12.60;;;14.20;99.90;;;;;;5005146;28;20571;-53
2021/07/21 03:43:24;;;;;;;16.80;12.60;;;14.30;99.90;;;;;;5002398;28;20057;-48
2021/07/21 03:46:07;;;;;;;14.68;11.63;;;14.30;99.90;;;;;;5006138;28;20069;-51
2021/07/21 03:48:35;;;;;;;16.10;13.25;;;14.40;99.90;;;;;;5004552;28;20182;-48
2021/07/21 03:51:15;;;;;;;16.58;11.57;;;14.40;99.90;;;;;;5006060;28;20647;-52
2021/07/21 03:54:03;;;;;;;19.95;13.70;;;14.40;99.90;;;;;;5006354;28;20058;-48
2021/07/21 03:56:31;;;;;;;17.20;13.52;;;14.40;99.90;;;;;;4989949;28;20079;-47
2021/07/21 03:59:06;;;;;;;16.02;12.88;;;14.50;99.90;;;;;;4989447;28;20053;-52
2021/07/21 04:01:39;;;;;;;19.05;13.75;;;14.50;99.90;;;;;;4991118;28;20110;-51
2021/07/21 04:04:06;;;;;;;17.63;14.75;;;14.60;99.90;;;;;;4967168;28;20058;-51
2021/07/21 04:06:36;;;;;;;17.80;14.20;;;14.60;99.90;;;;;;5004539;28;20551;-53
2021/07/21 04:09:21;;;;;;;18.20;13.25;;;14.70;99.90;;;;;;5042948;28;20707;-49
2021/07/21 04:11:50;;;;;;;16.60;13.52;;;14.70;99.90;;;;;;5024592;28;20053;-50
2021/07/21 04:14:23;;;;;;;18.58;13.65;;;14.70;99.90;;;;;;5026732;28;20100;-47
2021/07/21 04:17:15;;;;;;;18.58;15.18;;;14.80;99.90;;;;;;5026124;28;20054;-49
2021/07/21 04:19:44;;;;;;;18.55;14.52;;;14.90;99.90;;;;;;5015560;28;20421;-53
2021/07/21 04:22:12;;;;;;;18.40;15.07;;;14.80;99.90;;;;;;5026624;28;20049;-50
2021/07/21 04:24:47;;;;;;;18.70;14.73;;;14.90;99.90;;;;;;5019334;28;20052;-50
2021/07/21 04:27:17;;;;;;;17.98;14.85;;;14.90;99.90;;;;;;5028247;28;20045;-51
2021/07/21 04:29:53;;;;;;;19.25;15.52;;;14.90;99.90;;;;;;5026386;28;20065;-51
2021/07/21 04:32:23;;;;;;;18.17;14.88;;;14.90;99.90;;;;;;5026131;28;20053;-50
2021/07/21 04:34:51;;;;;;;20.27;15.27;;;15.00;99.90;;;;;;5041032;28;20045;-52
2021/07/21 04:37:20;;;;;;;23.60;15.60;;;15.00;99.90;;;;;;5026011;28;20132;-49
2021/07/21 04:40:07;;;;;;;17.92;14.85;;;15.00;99.90;;;;;;5015854;28;20045;-52
2021/07/21 04:42:40;;;;;;;22.42;16.88;;;15.00;99.90;;;;;;5028375;28;20062;-49
2021/07/21 04:45:10;;;;;;;22.40;17.50;;;15.00;99.90;;;;;;5017098;28;20753;-47
2021/07/21 04:47:36;;;;;;;19.23;16.83;;;15.00;99.90;;;;;;5026542;28;20042;-50
2021/07/21 04:50:13;;;;;;;19.50;15.07;;;15.10;99.90;;;;;;5011615;28;20050;-52
2021/07/21 04:52:42;;;;;;;20.05;15.18;;;15.10;99.90;;;;;;5033929;28;20100;-49
2021/07/21 04:55:10;;;;;;;16.45;14.52;;;15.20;99.90;;;;;;5017687;28;20494;-49
2021/07/21 04:57:42;;;;;;;20.83;16.88;;;15.20;99.90;;;;;;5042202;28;20049;-48
2021/07/21 05:00:15;;;;;;;21.63;16.15;;;15.30;99.90;;;;;;5026443;28;20449;-50
2021/07/21 05:02:50;;;;;;;20.58;16.98;;;15.30;99.90;;;;;;5009651;28;20077;-51
2021/07/21 05:05:18;;;;;;;21.70;17.58;;;15.40;99.90;;;;;;5035343;28;20478;-49
2021/07/21 05:07:59;;;;;;;20.63;17.25;;;15.50;99.90;;;;;;5043124;28;20044;-56
2021/07/21 05:10:29;;;;;;;23.92;17.27;;;15.50;99.90;;;;;;5026898;28;20107;-56
2021/07/21 05:13:01;;;;;;;20.15;16.70;;;15.60;99.90;;;;;;5025927;28;20236;-52
2021/07/21 05:15:33;;;;;;;22.50;17.75;;;15.70;99.90;;;;;;5018570;28;20063;-53
2021/07/21 05:18:11;;;;;;;21.42;17.02;;;15.80;99.90;;;;;;5026486;28;20103;-54
2021/07/21 05:20:44;;;;;;;19.98;16.17;;;15.90;99.90;;;;;;5024334;28;20051;-54
2021/07/21 05:23:12;;;;;;;22.00;17.65;;;15.90;99.90;;;;;;5021133;28;20046;-54
2021/07/21 05:25:42;;;;;;;20.95;17.70;;;16.00;99.90;;;;;;5025572;28;21927;-54
2021/07/21 05:28:34;;;;;;;19.50;16.42;;;16.10;99.90;;;;;;5022779;28;20103;-54
2021/07/21 05:31:09;;;;;;;21.92;18.00;;;16.10;99.90;;;;;;5018967;28;20041;-53
2021/07/21 05:33:55;;;;;;;22.02;17.77;;;16.10;99.90;;;;;;5025335;28;20108;-51
2021/07/21 05:36:22;;;;;;;22.95;17.95;;;16.10;99.90;;;;;;5049344;28;20080;-50
2021/07/21 05:38:50;;;;;;;24.98;19.38;;;16.30;99.90;;;;;;5047271;28;20049;-56
2021/07/21 05:41:19;;;;;;;22.00;17.95;;;16.30;99.90;;;;;;5040978;28;20098;-51
2021/07/21 05:43:48;;;;;;;21.70;18.23;;;16.30;99.90;;;;;;5041414;28;20053;-52
2021/07/21 05:46:14;;;;;;;24.73;19.48;;;16.40;99.90;;;;;;5028577;28;20051;-51
2021/07/21 05:48:42;;;;;;;23.13;18.73;;;16.50;99.90;;;;;;5024988;28;20792;-51
2021/07/21 05:51:29;;;;;;;22.52;18.60;;;16.70;99.90;;;;;;5016227;28;20078;-52
2021/07/21 05:54:20;;;;;;;21.33;17.92;;;17.00;99.90;;;;;;5026956;28;20046;-53
2021/07/21 05:56:47;;;;;;;22.38;18.45;;;17.40;99.90;;;;;;5021834;28;20060;-54
2021/07/21 05:59:28;;;;;;;20.92;17.17;;;17.70;99.90;;;;;;5024632;28;20049;-52
2021/07/21 06:01:54;;;;;;;20.92;16.35;;;18.00;99.90;;;;;;5041350;28;20065;-54
2021/07/21 06:04:22;;;;;;;20.38;16.02;;;18.30;99.90;;;;;;5024958;28;20475;-51
2021/07/21 06:07:20;;;;;;;22.52;18.25;;;18.60;99.90;;;;;;5023589;28;20140;-53
2021/07/21 06:10:06;;;;;;;18.25;15.38;;;18.70;99.90;;;;;;5010153;28;20571;-54
2021/07/21 06:12:45;;;;;;;41.85;34.97;;;19.00;99.90;;;;;;5019245;28;20375;-56
2021/07/21 06:15:12;;;;;;;20.08;16.05;;;19.40;99.90;;;;;;5042634;28;20502;-51
2021/07/21 06:17:39;;;;;;;35.00;29.15;;;19.50;99.90;;;;;;5039218;28;20510;-58
2021/07/21 06:20:08;;;;;;;29.17;26.00;;;19.70;99.90;;;;;;5037566;28;20126;-55
2021/07/21 06:22:39;;;;;;;20.25;15.40;;;19.80;99.90;;;;;;5024653;28;20422;-55
2021/07/21 06:25:15;;;;;;;20.58;16.13;;;20.00;99.90;;;;;;5022578;28;20119;-58
2021/07/21 06:28:02;;;;;;;26.92;23.13;;;20.30;99.90;;;;;;5021801;28;20141;-56
2021/07/21 06:30:32;;;;;;;21.65;19.23;;;20.50;99.90;;;;;;5041879;28;20046;-55
2021/07/21 06:33:00;;;;;;;31.98;28.60;;;20.70;99.90;;;;;;5024525;28;20052;-58
2021/07/21 06:35:27;;;;;;;17.38;14.63;;;20.90;99.90;;;;;;5040828;28;20150;-52
2021/07/21 06:37:54;;;;;;;17.63;15.15;;;21.10;99.90;;;;;;5038374;28;20064;-56
2021/07/21 06:40:26;;;;;;;17.13;15.32;;;21.10;99.90;;;;;;5040798;28;20049;-56
2021/07/21 06:42:55;;;;;;;19.02;14.98;;;21.00;99.90;;;;;;5027150;28;20060;-56
2021/07/21 06:45:24;;;;;;;14.82;13.20;;;21.20;99.90;;;;;;5025081;28;20045;-53
2021/07/21 06:48:00;;;;;;;16.83;13.07;;;21.50;99.90;;;;;;5025203;28;20041;-58
2021/07/21 06:50:34;;;;;;;15.13;13.10;;;21.70;99.90;;;;;;5041938;28;20462;-55
2021/07/21 06:53:04;;;;;;;13.98;11.95;;;21.90;99.90;;;;;;5043482;28;20472;-57
2021/07/21 06:56:12;;;;;;;13.98;12.40;;;22.00;99.90;;;;;;5026411;28;20112;-55
2021/07/21 06:58:52;;;;;;;14.43;11.00;;;21.90;99.90;;;;;;5024687;28;20041;-57
2021/07/21 07:01:21;;;;;;;13.25;11.77;;;21.80;99.90;;;;;;5042353;28;20073;-55
2021/07/21 07:04:11;;;;;;;15.63;14.02;;;21.80;99.90;;;;;;5030118;28;20053;-54
2021/07/21 07:06:59;;;;;;;15.57;13.23;;;21.60;99.90;;;;;;5017127;28;20050;-55
2021/07/21 07:09:44;;;;;;;14.30;11.07;;;21.50;99.90;;;;;;5028133;28;20127;-54
2021/07/21 07:12:16;;;;;;;;;;;21.90;99.90;;;;;;5038444;28;20683;-56
2021/07/21 07:14:44;;;;;;;18.80;16.88;;;21.90;99.90;;;;;;5043679;28;19936;-54
2021/07/21 07:17:11;;;;;;;37.63;33.75;;;22.30;99.90;;;;;;5013849;28;20054;-57
2021/07/21 07:19:40;;;;;;;16.17;12.25;;;22.20;99.90;;;;;;5026195;28;20041;-54
2021/07/21 07:22:09;;;;;;;11.93;10.02;;;22.10;99.90;;;;;;5025009;28;20045;-56
2021/07/21 07:24:35;;;;;;;15.07;11.45;;;22.30;99.90;;;;;;5029516;28;20049;-54
2021/07/21 07:27:03;;;;;;;13.85;12.38;;;22.40;99.90;;;;;;5021414;28;20046;-57
2021/07/21 07:29:29;;;;;;;13.25;11.55;;;22.70;99.90;;;;;;5029158;28;20136;-54
2021/07/21 07:31:56;;;;;;;14.07;11.18;;;23.00;98.10;;;;;;5044705;28;20274;-54
2021/07/21 07:34:22;;;;;;;15.45;12.88;;;23.30;92.70;;;;;;5030933;28;20060;-53
2021/07/21 07:36:48;;;;;;;14.50;12.95;;;23.60;93.70;;;;;;5031437;28;20041;-55
2021/07/21 07:39:15;;;;;;;18.65;16.55;;;23.70;93.30;;;;;;5029023;28;20065;-56
2021/07/21 07:41:42;;;;;;;12.15;9.88;;;23.80;90.30;;;;;;5029363;28;20127;-60
2021/07/21 07:44:09;;;;;;;10.27;9.13;;;23.70;88.60;;;;;;5033133;28;20057;-56
2021/07/21 07:46:36;;;;;;;10.48;8.48;;;23.50;81.50;;;;;;5023481;28;20161;-57
2021/07/21 07:49:04;;;;;;;18.00;10.65;;;23.70;76.20;;;;;;5009586;28;20053;-56
2021/07/21 07:51:30;;;;;;;9.80;8.02;;;23.40;80.60;;;;;;5028670;28;20417;-52
2021/07/21 07:54:02;;;;;;;14.90;13.43;;;23.30;78.20;;;;;;5033589;28;20057;-55
2021/07/21 07:56:29;;;;;;;14.30;12.55;;;23.40;79.10;;;;;;5040529;28;20140;-54
2021/07/21 07:58:55;;;;;;;10.38;9.27;;;23.60;79.30;;;;;;5028849;28;20057;-54
2021/07/21 08:01:21;;;;;;;10.07;8.65;;;23.80;77.40;;;;;;5025981;28;20053;-55
2021/07/21 08:03:48;;;;;;;14.20;12.73;;;23.70;74.30;;;;;;5028711;28;20045;-55
2021/07/21 08:06:14;;;;;;;11.48;7.72;;;23.50;74.20;;;;;;5031406;28;20444;-55
2021/07/21 08:08:40;;;;;;;16.73;14.93;;;23.80;76.70;;;;;;5025488;28;20053;-53
2021/07/21 08:11:09;;;;;;;8.50;7.60;;;23.90;72.70;;;;;;5029134;28;20083;-56
2021/07/21 08:13:35;;;;;;;9.88;8.52;;;24.20;70.00;;;;;;5027608;28;20111;-57
2021/07/21 08:16:01;;;;;;;9.88;7.93;;;24.30;70.70;;;;;;5028141;28;20406;-53
2021/07/21 08:18:28;;;;;;;10.50;8.15;;;24.60;72.30;;;;;;5027390;28;20053;-55
2021/07/21 08:20:56;;;;;;;11.20;9.15;;;24.60;70.30;;;;;;5027330;28;20046;-54
2021/07/21 08:23:22;;;;;;;10.38;8.73;;;25.00;69.20;;;;;;5043430;28;20075;-53
2021/07/21 08:25:48;;;;;;;10.25;8.30;;;24.70;68.00;;;;;;5039957;28;20076;-56
2021/07/21 08:28:17;;;;;;;10.98;9.38;;;24.70;68.80;;;;;;5047366;28;20076;-56
2021/07/21 08:30:47;;;;;;;13.18;9.88;;;24.80;68.80;;;;;;5064358;28;20057;-56
2021/07/21 08:33:13;;;;;;;10.57;7.97;;;24.80;68.20;;;;;;5043179;28;20064;-56
2021/07/21 08:35:41;;;;;;;10.13;8.70;;;25.00;69.70;;;;;;5028317;28;20053;-55
2021/07/21 08:38:08;;;;;;;8.32;7.47;;;25.10;69.30;;;;;;5028562;28;20045;-53
2021/07/21 08:40:48;;;;;;;8.85;7.80;;;25.60;69.50;;;;;;5027301;28;20053;-52
2021/07/21 08:43:16;;;;;;;10.57;8.32;;;25.90;66.80;;;;;;5027772;28;20050;-51
2021/07/21 08:45:44;;;;;;;9.57;7.80;;;26.40;63.50;;;;;;5035500;28;20140;-48
2021/07/21 08:48:13;;;;;;;9.45;7.68;;;26.70;64.90;;;;;;5029126;28;20042;-50
2021/07/21 08:50:46;;;;;;;9.25;8.35;;;26.40;63.20;;;;;;5008281;28;20058;-50
2021/07/21 08:53:14;;;;;;;9.65;8.55;;;26.40;63.20;;;;;;5019498;28;20199;-47
2021/07/21 08:55:40;;;;;;;9.93;8.38;;;26.30;63.90;;;;;;5027910;28;20046;-49
2021/07/21 08:58:10;;;;;;;11.13;9.07;;;26.00;64.00;;;;;;5027974;28;20053;-50
2021/07/21 09:00:36;;;;;;;10.75;9.02;;;25.90;62.20;;;;;;5028889;28;20408;-48
2021/07/21 09:03:03;;;;;;;9.60;8.60;;;25.90;63.60;;;;;;5027264;28;20049;-50
2021/07/21 09:05:32;;;;;;;9.18;7.40;;;25.90;62.40;;;;;;5028019;28;20072;-48
2021/07/21 09:07:59;;;;;;;9.75;8.57;;;25.90;63.10;;;;;;5027798;28;20052;-51
2021/07/21 09:10:25;;;;;;;10.40;8.52;;;26.00;62.50;;;;;;5028324;28;20461;-48
2021/07/21 09:12:51;;;;;;;9.43;8.15;;;26.00;62.40;;;;;;5028177;28;20084;-48
2021/07/21 09:15:20;;;;;;;9.57;8.43;;;26.10;61.90;;;;;;5027442;28;20045;-51
2021/07/21 09:18:04;;;;;;;11.18;7.75;;;26.10;64.10;;;;;;5027620;28;20140;-51
2021/07/21 09:20:33;;;;;;;10.88;8.18;;;26.10;61.60;;;;;;5027917;28;20057;-52
2021/07/21 09:22:59;;;;;;;8.35;7.35;;;26.30;61.90;;;;;;5033471;28;20049;-51
2021/07/21 09:25:29;;;;;;;9.85;8.52;;;26.40;62.70;;;;;;5028017;28;20052;-50
2021/07/21 09:27:58;;;;;;;10.43;8.90;;;26.40;60.10;;;;;;5028167;28;20049;-48
2021/07/21 09:30:33;;;;;;;10.80;8.10;;;26.70;60.10;;;;;;5027435;28;20053;-49
2021/07/21 09:33:08;;;;;;;9.85;7.28;;;26.80;61.10;;;;;;5025881;28;20180;-51
2021/07/21 09:35:51;;;;;;;8.43;7.28;;;26.60;59.20;;;;;;5026935;28;20049;-52
2021/07/21 09:38:21;;;;;;;10.13;8.55;;;26.50;58.60;;;;;;5027280;28;20132;-55
2021/07/21 09:41:04;;;;;;;9.93;7.85;;;26.30;60.40;;;;;;5027106;28;20053;-48
2021/07/21 09:43:32;;;;;;;10.40;7.63;;;26.30;60.00;;;;;;5026486;28;20057;-51
2021/07/21 09:46:15;;;;;;;8.63;7.72;;;26.40;60.90;;;;;;5027487;28;20452;-49
2021/07/21 09:48:49;;;;;;;10.07;8.35;;;26.90;59.60;;;;;;5029298;28;20084;-48
2021/07/21 09:51:32;;;;;;;9.35;8.10;;;26.80;60.90;;;;;;5010853;28;20060;-48
2021/07/21 09:54:17;;;;;;;9.90;8.48;;;26.80;57.90;;;;;;5012925;28;20132;-49
2021/07/21 09:56:46;;;;;;;9.30;8.25;;;26.90;58.10;;;;;;5027333;28;20099;-50
2021/07/21 09:59:20;;;;;;;10.57;8.27;;;27.30;59.10;;;;;;5031708;28;20095;-49
2021/07/21 10:01:47;;;;;;;10.60;8.35;;;27.60;58.40;;;;;;5025628;28;20053;-51
2021/07/21 10:04:13;;;;;;;9.32;8.15;;;27.80;57.20;;;;;;5029141;28;20053;-51
2021/07/21 10:06:40;;;;;;;11.38;9.20;;;28.20;56.10;;;;;;5032199;28;20047;-48
2021/07/21 10:09:09;;;;;;;11.40;8.33;;;28.00;55.80;;;;;;5027603;28;20049;-49
2021/07/21 10:11:39;;;;;;;8.60;7.70;;;28.70;57.20;;;;;;5019151;28;20058;-49
2021/07/21 10:14:15;;;;;;;8.98;7.60;;;28.90;55.40;;;;;;5008145;28;20042;-49
2021/07/21 10:16:46;;;;;;;9.63;7.65;;;28.50;54.20;;;;;;5024300;28;20118;-53
2021/07/21 10:19:26;;;;;;;9.48;7.85;;;28.30;55.50;;;;;;5008253;28;20233;-52
2021/07/21 10:21:58;;;;;;;;;;;28.60;53.30;;;;;;5018044;28;20101;-51
2021/07/21 10:24:34;;;;;;;9.05;7.95;;;28.30;53.80;;;;;;5027085;28;19921;-48
2021/07/21 10:27:02;;;;;;;11.10;8.57;;;28.70;55.30;;;;;;5040793;28;20053;-50
2021/07/21 10:29:28;;;;;;;8.48;7.00;;;28.70;53.40;;;;;;5026919;28;20066;-49
2021/07/21 10:31:56;;;;;;;7.82;6.70;;;28.90;53.90;;;;;;5027274;28;20060;-48
2021/07/21 10:34:26;;;;;;;10.15;7.90;;;29.50;52.20;;;;;;5037076;28;20054;-51
2021/07/21 10:36:52;;;;;;;8.02;7.25;;;29.70;52.10;;;;;;5015895;28;20567;-51
2021/07/21 10:39:22;;;;;;;10.90;7.82;;;29.80;50.90;;;;;;5023402;28;20049;-49
2021/07/21 10:41:53;;;;;;;8.75;7.55;;;29.40;50.00;;;;;;5031018;28;20187;-47
2021/07/21 10:44:20;;;;;;;8.73;7.55;;;29.10;50.20;;;;;;5029429;28;20564;-50
2021/07/21 10:46:51;;;;;;;9.93;8.27;;;28.90;50.70;;;;;;5030163;28;20053;-51
2021/07/21 10:49:35;;;;;;;9.13;7.57;;;28.90;51.10;;;;;;5035481;28;20045;-51
2021/07/21 11:00:32;;;;;;;10.18;7.57;;;27.80;52.70;;;;;;5030671;28;20132;-62
2021/07/21 11:03:19;;;;;;;8.93;7.80;;;27.90;54.60;;;;;;5029094;28;20056;-60
2021/07/21 11:05:55;;;;;;;10.90;9.73;;;28.10;53.70;;;;;;5030672;28;20057;-59
2021/07/21 11:08:23;;;;;;;9.65;7.78;;;28.70;52.20;;;;;;5021065;28;20115;-61
2021/07/21 11:10:51;;;;;;;8.82;7.93;;;28.80;51.90;;;;;;5016052;28;20095;-60
2021/07/21 11:13:38;;;;;;;8.65;7.70;;;28.90;52.60;;;;;;5035287;28;20830;-61
2021/07/21 11:16:06;;;;;;;8.95;8.05;;;28.90;50.80;;;;;;5029677;28;20045;-59
2021/07/21 11:18:35;;;;;;;8.23;7.43;;;29.00;50.30;;;;;;5029474;28;20124;-58
2021/07/21 11:21:04;;;;;;;11.98;9.95;;;29.00;50.50;;;;;;5027497;28;20144;-61
2021/07/21 11:23:43;;;;;;;8.57;7.75;;;28.80;49.60;;;;;;5027758;28;20057;-61
2021/07/21 11:26:28;;;;;;;8.80;7.63;;;28.50;52.80;;;;;;5024174;28;20049;-61
2021/07/21 11:28:55;;;;;;;10.50;9.40;;;28.50;53.30;;;;;;5029652;28;20065;-62
2021/07/21 11:31:50;;;;;;;9.63;8.40;;;28.50;52.50;;;;;;5029678;28;20057;-61
2021/07/21 11:34:29;;;;;;;11.18;8.98;;;28.60;50.50;;;;;;5029025;28;20061;-49
2021/07/21 11:37:06;;;;;;;12.90;11.40;;;28.20;51.60;;;;;;5029132;28;20057;-51
2021/07/21 11:39:59;;;;;;;10.15;9.07;;;28.40;51.30;;;;;;5030949;28;20061;-50
2021/07/21 11:42:27;;;;;;;9.50;8.48;;;28.40;50.00;;;;;;5029489;28;20054;-49
2021/07/21 11:45:05;;;;;;;10.20;9.20;;;27.80;51.70;;;;;;5029927;28;20829;-49
2021/07/21 11:47:37;;;;;;;8.45;7.35;;;27.60;52.90;;;;;;5028370;28;20609;-49
2021/07/21 11:50:09;;;;;;;9.90;8.88;;;27.30;54.00;;;;;;5035786;28;20124;-50
2021/07/21 11:52:36;;;;;;;9.02;7.18;;;27.20;54.00;;;;;;5018044;28;20057;-49
2021/07/21 11:55:02;;;;;;;8.68;7.78;;;26.90;54.50;;;;;;5009947;28;20166;-50
2021/07/21 11:57:30;;;;;;;8.25;7.45;;;26.70;54.90;;;;;;5009810;28;20054;-51
2021/07/21 11:59:58;;;;;;;11.00;9.13;;;26.30;54.90;;;;;;5024845;28;20041;-49
2021/07/21 12:02:26;;;;;;;12.02;10.80;;;26.20;55.50;;;;;;5024505;28;20050;-49
2021/07/21 12:04:54;;;;;;;10.15;9.07;;;26.00;55.60;;;;;;5019238;28;20096;-47
2021/07/21 12:07:22;;;;;;;9.35;7.68;;;25.90;55.90;;;;;;5028922;28;20208;-48
2021/07/21 12:09:53;;;;;;;10.48;7.70;;;26.00;57.20;;;;;;5029052;28;20061;-48
2021/07/21 12:12:21;;;;;;;10.73;9.57;;;25.80;57.40;;;;;;5029166;28;20049;-49
2021/07/21 12:14:55;;;;;;;10.55;9.27;;;25.90;57.50;;;;;;5021098;28;20144;-49
2021/07/21 12:17:23;;;;;;;8.85;7.43;;;25.60;57.60;;;;;;5033935;28;20949;-48
2021/07/21 12:20:02;;;;;;;9.73;7.93;;;25.40;58.00;;;;;;5012592;28;20049;-48
2021/07/21 12:22:30;;;;;;;27.42;24.98;;;25.30;57.60;;;;;;5028143;28;20045;-51
2021/07/21 12:24:59;;;;;;;54.28;48.88;;;25.00;59.20;;;;;;5026096;28;20084;-51
2021/07/21 12:27:36;;;;;;;13.00;11.70;;;25.10;59.20;;;;;;5028371;28;20100;-47
2021/07/21 12:30:36;;;;;;;30.83;27.67;;;25.10;60.40;;;;;;5028835;28;20147;-48
2021/07/21 12:33:05;;;;;;;10.68;8.73;;;24.90;62.10;;;;;;5007180;28;20260;-46
2021/07/21 12:35:34;;;;;;;11.23;8.95;;;24.80;61.10;;;;;;5005519;28;20081;-50
2021/07/21 12:38:01;;;;;;;10.90;8.23;;;24.80;61.50;;;;;;5005691;28;20136;-49
2021/07/21 12:40:29;;;;;;;34.85;31.35;;;24.80;62.60;;;;;;5007973;28;20065;-51
2021/07/21 12:43:01;;;;;;;12.23;9.63;;;24.60;63.00;;;;;;5006537;28;20407;-46
2021/07/21 12:45:34;;;;;;;10.18;7.90;;;24.80;62.40;;;;;;5005712;28;20054;-52
2021/07/21 12:48:01;;;;;;;10.23;8.50;;;25.30;62.60;;;;;;5006011;28;20104;-48
2021/07/21 12:50:38;;;;;;;12.25;10.60;;;25.20;60.80;;;;;;5005706;28;20060;-49
2021/07/21 12:53:15;;;;;;;9.77;7.90;;;25.50;60.40;;;;;;5007278;28;20791;-51
2021/07/21 12:55:44;;;;;;;11.18;8.57;;;25.40;59.80;;;;;;5005335;28;20074;-47
2021/07/21 12:58:17;;;;;;;11.38;9.57;;;25.40;60.00;;;;;;5009764;28;20228;-48
2021/07/21 13:00:48;;;;;;;9.35;8.35;;;25.50;59.80;;;;;;5011157;28;20417;-49
2021/07/21 13:03:16;;;;;;;10.38;8.70;;;25.30;60.80;;;;;;5008601;28;20058;-51
2021/07/21 13:05:56;;;;;;;9.30;8.00;;;25.30;60.60;;;;;;5005778;28;20406;-51
2021/07/21 13:08:33;;;;;;;30.75;27.73;;;25.30;60.70;;;;;;5003205;28;20057;-49
2021/07/21 13:11:01;;;;;;;19.80;17.75;;;25.40;60.50;;;;;;5027282;28;20049;-46
2021/07/21 13:13:30;;;;;;;14.30;9.70;;;25.40;60.80;;;;;;5027887;28;20140;-49